sensor_id;sensor_type;location;lat;lon;timestamp;noise_LAeq;noise_LA_min;noise_LA_max;noise_LA01;noise_LA95
79200;Laerm;68628;48.714;9.472;2023-10-09T00:00:24;50.84;50.06;51.86;;
79200;Laerm;68628;48.714;9.472;2023-10-09T00:03:06;50.84;49.94;51.90;;
79200;Laerm;68628;48.714;9.472;2023-10-09T00:05:33;50.85;50.10;51.92;;
79200;Laerm;68628;48.714;9.472;2023-10-09T00:08:12;50.88;49.77;51.58;;
79200;Laerm;68628;48.714;9.472;2023-10-09T00:10:43;50.86;50.04;51.61;;
79200;Laerm;68628;48.714;9.472;2023-10-09T00:13:25;51.00;50.19;51.84;;
79200;Laerm;68628;48.714;9.472;2023-10-09T00:16:04;51.10;50.04;51.86;;
79200;Laerm;68628;48.714;9.472;2023-10-09T00:18:39;51.06;50.20;51.88;;
79200;Laerm;68628;48.714;9.472;2023-10-09T00:21:05;51.12;50.49;52.13;;
79200;Laerm;68628;48.714;9.472;2023-10-09T00:23:40;51.05;50.26;51.79;;
79200;Laerm;68628;48.714;9.472;2023-10-09T00:26:08;51.40;50.55;52.33;;
79200;Laerm;68628;48.714;9.472;2023-10-09T00:28:45;51.07;50.10;51.96;;
79200;Laerm;68628;48.714;9.472;2023-10-09T00:31:15;50.77;50.03;51.46;;
79200;Laerm;68628;48.714;9.472;2023-10-09T00:33:44;50.81;50.10;51.54;;
79200;Laerm;68628;48.714;9.472;2023-10-09T00:36:11;50.79;49.89;51.62;;
79200;Laerm;68628;48.714;9.472;2023-10-09T00:38:39;50.78;50.03;51.38;;
79200;Laerm;68628;48.714;9.472;2023-10-09T00:41:10;50.78;49.97;51.60;;
79200;Laerm;68628;48.714;9.472;2023-10-09T00:43:38;50.87;50.12;51.62;;
79200;Laerm;68628;48.714;9.472;2023-10-09T00:46:08;50.85;50.09;51.62;;
79200;Laerm;68628;48.714;9.472;2023-10-09T00:48:52;50.87;50.10;51.56;;
79200;Laerm;68628;48.714;9.472;2023-10-09T00:51:19;50.98;50.16;52.12;;
79200;Laerm;68628;48.714;9.472;2023-10-09T00:53:53;50.97;50.29;51.84;;
79200;Laerm;68628;48.714;9.472;2023-10-09T00:56:21;50.95;50.02;51.72;;
79200;Laerm;68628;48.714;9.472;2023-10-09T00:58:55;50.99;50.19;51.76;;
79200;Laerm;68628;48.714;9.472;2023-10-09T01:01:25;51.07;50.20;52.28;;
79200;Laerm;68628;48.714;9.472;2023-10-09T01:04:03;50.98;50.18;51.89;;
79200;Laerm;68628;48.714;9.472;2023-10-09T01:06:37;51.05;50.29;52.19;;
79200;Laerm;68628;48.714;9.472;2023-10-09T01:09:13;51.15;50.21;52.38;;
79200;Laerm;68628;48.714;9.472;2023-10-09T01:11:43;51.08;49.87;52.31;;
79200;Laerm;68628;48.714;9.472;2023-10-09T01:14:15;51.18;50.22;52.69;;
79200;Laerm;68628;48.714;9.472;2023-10-09T01:16:42;50.92;50.09;51.91;;
79200;Laerm;68628;48.714;9.472;2023-10-09T01:19:09;50.89;50.00;51.74;;
79200;Laerm;68628;48.714;9.472;2023-10-09T01:21:40;50.82;50.02;51.87;;
79200;Laerm;68628;48.714;9.472;2023-10-09T01:24:06;50.97;50.12;52.18;;
79200;Laerm;68628;48.714;9.472;2023-10-09T01:29:14;50.95;50.05;52.05;;
79200;Laerm;68628;48.714;9.472;2023-10-09T01:34:12;52.34;50.11;55.40;;
79200;Laerm;68628;48.714;9.472;2023-10-09T01:36:41;51.35;50.23;53.40;;
79200;Laerm;68628;48.714;9.472;2023-10-09T01:39:07;50.87;49.91;52.22;;
79200;Laerm;68628;48.714;9.472;2023-10-09T01:41:52;50.95;50.14;51.77;;
79200;Laerm;68628;48.714;9.472;2023-10-09T01:44:28;50.99;50.12;51.88;;
79200;Laerm;68628;48.714;9.472;2023-10-09T01:46:56;50.86;49.97;51.93;;
79200;Laerm;68628;48.714;9.472;2023-10-09T01:49:24;51.14;50.17;52.46;;
79200;Laerm;68628;48.714;9.472;2023-10-09T01:51:57;51.04;50.01;51.84;;
79200;Laerm;68628;48.714;9.472;2023-10-09T01:54:38;51.44;49.91;53.46;;
79200;Laerm;68628;48.714;9.472;2023-10-09T01:57:07;50.87;50.17;51.76;;
79200;Laerm;68628;48.714;9.472;2023-10-09T01:59:39;50.81;50.01;52.09;;
79200;Laerm;68628;48.714;9.472;2023-10-09T02:02:13;50.72;49.69;51.38;;
79200;Laerm;68628;48.714;9.472;2023-10-09T02:04:41;50.77;50.02;51.77;;
79200;Laerm;68628;48.714;9.472;2023-10-09T02:07:07;50.75;49.95;51.45;;
79200;Laerm;68628;48.714;9.472;2023-10-09T02:09:35;50.79;50.02;51.56;;
79200;Laerm;68628;48.714;9.472;2023-10-09T02:12:09;50.83;50.13;51.65;;
79200;Laerm;68628;48.714;9.472;2023-10-09T02:14:35;50.83;50.09;51.71;;
79200;Laerm;68628;48.714;9.472;2023-10-09T02:17:06;50.86;50.08;51.62;;
79200;Laerm;68628;48.714;9.472;2023-10-09T02:19:44;50.75;49.97;51.46;;
79200;Laerm;68628;48.714;9.472;2023-10-09T02:22:15;50.74;49.93;51.55;;
79200;Laerm;68628;48.714;9.472;2023-10-09T02:24:44;50.71;50.06;51.75;;
79200;Laerm;68628;48.714;9.472;2023-10-09T02:27:13;50.76;50.04;51.69;;
79200;Laerm;68628;48.714;9.472;2023-10-09T02:29:46;50.73;49.85;51.63;;
79200;Laerm;68628;48.714;9.472;2023-10-09T02:32:13;50.72;50.05;52.74;;
79200;Laerm;68628;48.714;9.472;2023-10-09T02:34:42;50.61;49.98;51.23;;
79200;Laerm;68628;48.714;9.472;2023-10-09T02:37:12;50.67;49.75;51.35;;
79200;Laerm;68628;48.714;9.472;2023-10-09T02:39:39;50.65;49.89;51.52;;
79200;Laerm;68628;48.714;9.472;2023-10-09T02:42:13;50.75;49.79;51.88;;
79200;Laerm;68628;48.714;9.472;2023-10-09T02:44:39;50.84;50.05;51.76;;
79200;Laerm;68628;48.714;9.472;2023-10-09T02:47:12;50.79;49.87;51.58;;
79200;Laerm;68628;48.714;9.472;2023-10-09T02:49:46;50.81;49.95;51.64;;
79200;Laerm;68628;48.714;9.472;2023-10-09T02:52:14;51.96;49.97;54.11;;
79200;Laerm;68628;48.714;9.472;2023-10-09T02:54:45;50.88;50.08;51.80;;
79200;Laerm;68628;48.714;9.472;2023-10-09T02:57:13;50.69;49.91;52.47;;
79200;Laerm;68628;48.714;9.472;2023-10-09T02:59:49;50.75;49.79;52.03;;
79200;Laerm;68628;48.714;9.472;2023-10-09T03:02:17;50.80;50.03;51.78;;
79200;Laerm;68628;48.714;9.472;2023-10-09T03:04:44;50.74;49.58;51.53;;
79200;Laerm;68628;48.714;9.472;2023-10-09T03:07:10;50.88;50.01;54.38;;
79200;Laerm;68628;48.714;9.472;2023-10-09T03:09:39;50.85;50.02;52.45;;
79200;Laerm;68628;48.714;9.472;2023-10-09T03:12:07;50.76;49.82;52.10;;
79200;Laerm;68628;48.714;9.472;2023-10-09T03:14:36;50.72;50.01;51.36;;
79200;Laerm;68628;48.714;9.472;2023-10-09T03:17:04;50.68;49.93;51.42;;
79200;Laerm;68628;48.714;9.472;2023-10-09T03:19:33;50.74;49.82;51.45;;
79200;Laerm;68628;48.714;9.472;2023-10-09T03:22:04;50.73;49.89;51.69;;
79200;Laerm;68628;48.714;9.472;2023-10-09T03:24:30;50.76;49.90;51.48;;
79200;Laerm;68628;48.714;9.472;2023-10-09T03:27:00;50.84;49.98;53.35;;
79200;Laerm;68628;48.714;9.472;2023-10-09T03:29:27;50.72;49.70;51.47;;
79200;Laerm;68628;48.714;9.472;2023-10-09T03:31:53;50.70;49.92;51.47;;
79200;Laerm;68628;48.714;9.472;2023-10-09T03:34:21;50.74;49.93;51.48;;
79200;Laerm;68628;48.714;9.472;2023-10-09T03:36:47;50.85;49.99;55.30;;
79200;Laerm;68628;48.714;9.472;2023-10-09T03:39:14;50.96;49.92;54.41;;
79200;Laerm;68628;48.714;9.472;2023-10-09T03:41:50;50.84;50.00;51.63;;
79200;Laerm;68628;48.714;9.472;2023-10-09T03:44:17;50.98;49.96;51.81;;
79200;Laerm;68628;48.714;9.472;2023-10-09T03:46:45;50.81;50.02;52.05;;
79200;Laerm;68628;48.714;9.472;2023-10-09T03:49:12;50.80;50.02;51.74;;
79200;Laerm;68628;48.714;9.472;2023-10-09T03:51:40;50.76;49.63;52.44;;
79200;Laerm;68628;48.714;9.472;2023-10-09T03:54:07;50.77;49.82;51.50;;
79200;Laerm;68628;48.714;9.472;2023-10-09T03:56:34;50.96;50.13;52.52;;
79200;Laerm;68628;48.714;9.472;2023-10-09T03:59:01;50.99;50.09;52.95;;
79200;Laerm;68628;48.714;9.472;2023-10-09T04:01:30;51.33;50.24;53.78;;
79200;Laerm;68628;48.714;9.472;2023-10-09T04:04:06;50.91;49.99;52.23;;
79200;Laerm;68628;48.714;9.472;2023-10-09T04:06:36;50.79;49.89;51.66;;
79200;Laerm;68628;48.714;9.472;2023-10-09T04:09:08;50.72;49.86;51.68;;
79200;Laerm;68628;48.714;9.472;2023-10-09T04:11:47;50.73;50.04;51.67;;
79200;Laerm;68628;48.714;9.472;2023-10-09T04:14:22;50.71;49.93;52.89;;
79200;Laerm;68628;48.714;9.472;2023-10-09T04:17:00;50.72;50.02;51.89;;
79200;Laerm;68628;48.714;9.472;2023-10-09T04:19:52;50.74;50.01;52.43;;
79200;Laerm;68628;48.714;9.472;2023-10-09T04:22:37;50.86;49.97;53.78;;
79200;Laerm;68628;48.714;9.472;2023-10-09T04:25:22;51.51;50.26;53.23;;
79200;Laerm;68628;48.714;9.472;2023-10-09T04:27:59;51.83;50.36;53.31;;
79200;Laerm;68628;48.714;9.472;2023-10-09T04:30:40;51.47;50.41;53.91;;
79200;Laerm;68628;48.714;9.472;2023-10-09T04:33:15;50.81;50.07;52.59;;
79200;Laerm;68628;48.714;9.472;2023-10-09T04:35:55;50.87;49.93;53.87;;
79200;Laerm;68628;48.714;9.472;2023-10-09T04:38:39;50.73;49.98;51.55;;
79200;Laerm;68628;48.714;9.472;2023-10-09T04:41:18;50.84;50.00;52.41;;
79200;Laerm;68628;48.714;9.472;2023-10-09T04:43:56;50.80;49.96;51.51;;
79200;Laerm;68628;48.714;9.472;2023-10-09T04:46:40;50.82;50.00;51.71;;
79200;Laerm;68628;48.714;9.472;2023-10-09T04:49:10;50.75;49.78;51.49;;
79200;Laerm;68628;48.714;9.472;2023-10-09T04:51:43;50.73;49.86;51.59;;
79200;Laerm;68628;48.714;9.472;2023-10-09T04:54:26;50.72;49.83;51.81;;
79200;Laerm;68628;48.714;9.472;2023-10-09T04:57:05;50.77;49.90;52.79;;
79200;Laerm;68628;48.714;9.472;2023-10-09T04:59:43;50.75;49.77;51.57;;
79200;Laerm;68628;48.714;9.472;2023-10-09T05:02:13;50.88;49.97;52.17;;
79200;Laerm;68628;48.714;9.472;2023-10-09T05:04:46;51.12;50.14;52.42;;
79200;Laerm;68628;48.714;9.472;2023-10-09T05:07:20;51.03;50.25;52.10;;
79200;Laerm;68628;48.714;9.472;2023-10-09T05:09:47;51.07;50.22;52.45;;
79200;Laerm;68628;48.714;9.472;2023-10-09T05:12:32;50.95;50.05;51.95;;
79200;Laerm;68628;48.714;9.472;2023-10-09T05:14:58;50.85;49.96;52.20;;
79200;Laerm;68628;48.714;9.472;2023-10-09T05:17:37;50.72;49.99;51.43;;
79200;Laerm;68628;48.714;9.472;2023-10-09T05:20:04;50.73;49.89;51.44;;
79200;Laerm;68628;48.714;9.472;2023-10-09T05:22:48;50.77;49.84;51.45;;
79200;Laerm;68628;48.714;9.472;2023-10-09T05:25:24;50.81;49.78;51.50;;
79200;Laerm;68628;48.714;9.472;2023-10-09T05:28:06;50.75;49.71;51.48;;
79200;Laerm;68628;48.714;9.472;2023-10-09T05:30:54;50.74;49.95;51.48;;
79200;Laerm;68628;48.714;9.472;2023-10-09T05:33:24;51.03;50.13;51.86;;
79200;Laerm;68628;48.714;9.472;2023-10-09T05:35:53;51.02;49.97;51.94;;
79200;Laerm;68628;48.714;9.472;2023-10-09T05:38:40;50.81;50.10;51.50;;
79200;Laerm;68628;48.714;9.472;2023-10-09T05:41:12;50.80;49.90;51.48;;
79200;Laerm;68628;48.714;9.472;2023-10-09T05:44:11;50.81;50.01;51.66;;
79200;Laerm;68628;48.714;9.472;2023-10-09T05:46:56;50.79;50.08;51.79;;
79200;Laerm;68628;48.714;9.472;2023-10-09T05:49:40;50.79;50.10;52.19;;
79200;Laerm;68628;48.714;9.472;2023-10-09T05:52:20;50.80;49.97;51.66;;
79200;Laerm;68628;48.714;9.472;2023-10-09T05:55:05;50.83;50.07;51.61;;
79200;Laerm;68628;48.714;9.472;2023-10-09T05:57:52;50.75;50.01;52.94;;
79200;Laerm;68628;48.714;9.472;2023-10-09T06:00:37;51.78;49.94;54.51;;
79200;Laerm;68628;48.714;9.472;2023-10-09T06:03:21;51.65;50.27;54.80;;
79200;Laerm;68628;48.714;9.472;2023-10-09T06:05:52;51.28;50.04;52.43;;
79200;Laerm;68628;48.714;9.472;2023-10-09T06:08:19;51.25;50.23;52.42;;
79200;Laerm;68628;48.714;9.472;2023-10-09T06:11:03;51.18;50.20;52.35;;
79200;Laerm;68628;48.714;9.472;2023-10-09T06:13:57;51.47;50.19;55.95;;
79200;Laerm;68628;48.714;9.472;2023-10-09T06:16:36;51.09;50.17;52.18;;
79200;Laerm;68628;48.714;9.472;2023-10-09T06:19:06;51.29;50.13;52.58;;
79200;Laerm;68628;48.714;9.472;2023-10-09T06:21:38;50.86;49.77;51.80;;
79200;Laerm;68628;48.714;9.472;2023-10-09T06:24:06;50.82;49.93;51.67;;
79200;Laerm;68628;48.714;9.472;2023-10-09T06:26:41;50.97;49.99;52.01;;
79200;Laerm;68628;48.714;9.472;2023-10-09T06:29:12;51.05;50.10;52.73;;
79200;Laerm;68628;48.714;9.472;2023-10-09T06:31:42;50.88;50.01;52.05;;
79200;Laerm;68628;48.714;9.472;2023-10-09T06:34:41;50.79;49.99;52.24;;
79200;Laerm;68628;48.714;9.472;2023-10-09T06:37:10;50.84;50.09;52.10;;
79200;Laerm;68628;48.714;9.472;2023-10-09T06:39:45;50.75;50.01;51.48;;
79200;Laerm;68628;48.714;9.472;2023-10-09T06:42:24;50.75;50.02;51.55;;
79200;Laerm;68628;48.714;9.472;2023-10-09T06:45:10;51.12;50.06;52.90;;
79200;Laerm;68628;48.714;9.472;2023-10-09T06:47:49;51.45;50.65;52.26;;
79200;Laerm;68628;48.714;9.472;2023-10-09T06:50:25;51.43;50.52;52.17;;
79200;Laerm;68628;48.714;9.472;2023-10-09T06:52:52;51.46;50.61;52.10;;
79200;Laerm;68628;48.714;9.472;2023-10-09T06:55:45;51.43;50.39;52.38;;
79200;Laerm;68628;48.714;9.472;2023-10-09T06:58:19;51.00;50.28;51.60;;
79200;Laerm;68628;48.714;9.472;2023-10-09T07:00:53;50.98;50.11;51.87;;
79200;Laerm;68628;48.714;9.472;2023-10-09T07:03:20;51.05;50.36;51.91;;
79200;Laerm;68628;48.714;9.472;2023-10-09T07:06:10;51.03;50.19;51.74;;
79200;Laerm;68628;48.714;9.472;2023-10-09T07:08:54;50.96;50.15;51.72;;
79200;Laerm;68628;48.714;9.472;2023-10-09T07:11:49;50.91;50.15;52.80;;
79200;Laerm;68628;48.714;9.472;2023-10-09T07:14:24;50.88;49.96;51.52;;
79200;Laerm;68628;48.714;9.472;2023-10-09T07:19:40;50.64;49.90;51.23;;
79200;Laerm;68628;48.714;9.472;2023-10-09T07:22:06;50.68;49.81;51.31;;
79200;Laerm;68628;48.714;9.472;2023-10-09T07:24:57;50.71;49.87;51.45;;
79200;Laerm;68628;48.714;9.472;2023-10-09T07:27:25;50.68;50.04;51.49;;
79200;Laerm;68628;48.714;9.472;2023-10-09T07:30:12;50.66;50.00;51.32;;
79200;Laerm;68628;48.714;9.472;2023-10-09T07:33:01;51.16;50.04;53.32;;
79200;Laerm;68628;48.714;9.472;2023-10-09T07:35:34;51.08;50.08;52.54;;
79200;Laerm;68628;48.714;9.472;2023-10-09T07:38:06;50.88;49.89;52.15;;
79200;Laerm;68628;48.714;9.472;2023-10-09T07:40:39;50.86;50.20;53.44;;
79200;Laerm;68628;48.714;9.472;2023-10-09T07:43:24;51.11;50.20;52.63;;
79200;Laerm;68628;48.714;9.472;2023-10-09T07:46:05;50.96;50.09;52.37;;
79200;Laerm;68628;48.714;9.472;2023-10-09T07:48:50;51.23;50.26;53.65;;
79200;Laerm;68628;48.714;9.472;2023-10-09T07:51:20;50.86;50.17;51.74;;
79200;Laerm;68628;48.714;9.472;2023-10-09T07:53:52;51.02;50.11;52.03;;
79200;Laerm;68628;48.714;9.472;2023-10-09T07:56:38;51.07;50.01;58.34;;
79200;Laerm;68628;48.714;9.472;2023-10-09T07:59:07;51.32;50.24;53.57;;
79200;Laerm;68628;48.714;9.472;2023-10-09T08:01:47;51.12;50.27;52.22;;
79200;Laerm;68628;48.714;9.472;2023-10-09T08:04:21;51.34;50.49;52.37;;
79200;Laerm;68628;48.714;9.472;2023-10-09T08:07:12;50.94;50.12;52.18;;
79200;Laerm;68628;48.714;9.472;2023-10-09T08:09:48;51.50;50.11;53.79;;
79200;Laerm;68628;48.714;9.472;2023-10-09T08:12:34;51.37;50.40;53.57;;
79200;Laerm;68628;48.714;9.472;2023-10-09T08:15:12;51.19;50.15;54.11;;
79200;Laerm;68628;48.714;9.472;2023-10-09T08:17:48;51.06;49.96;54.52;;
79200;Laerm;68628;48.714;9.472;2023-10-09T08:20:25;51.17;50.00;53.24;;
79200;Laerm;68628;48.714;9.472;2023-10-09T08:22:55;51.02;49.96;52.98;;
79200;Laerm;68628;48.714;9.472;2023-10-09T08:25:22;51.52;49.98;57.15;;
79200;Laerm;68628;48.714;9.472;2023-10-09T08:28:00;51.39;49.76;57.18;;
79200;Laerm;68628;48.714;9.472;2023-10-09T08:30:46;51.03;50.13;54.69;;
79200;Laerm;68628;48.714;9.472;2023-10-09T08:33:17;54.55;50.46;61.80;;
79200;Laerm;68628;48.714;9.472;2023-10-09T08:35:56;55.96;50.28;62.01;;
79200;Laerm;68628;48.714;9.472;2023-10-09T08:38:30;58.99;50.58;66.08;;
79200;Laerm;68628;48.714;9.472;2023-10-09T08:41:10;55.75;49.86;63.38;;
79200;Laerm;68628;48.714;9.472;2023-10-09T08:43:48;52.09;50.25;55.47;;
79200;Laerm;68628;48.714;9.472;2023-10-09T08:46:28;53.58;50.21;56.84;;
79200;Laerm;68628;48.714;9.472;2023-10-09T08:48:58;54.50;50.48;57.82;;
79200;Laerm;68628;48.714;9.472;2023-10-09T08:51:28;51.65;50.21;56.86;;
79200;Laerm;68628;48.714;9.472;2023-10-09T08:53:55;50.98;50.04;52.88;;
79200;Laerm;68628;48.714;9.472;2023-10-09T08:56:22;50.83;49.91;52.35;;
79200;Laerm;68628;48.714;9.472;2023-10-09T08:58:50;51.33;50.16;53.15;;
79200;Laerm;68628;48.714;9.472;2023-10-09T09:01:17;51.52;50.02;54.09;;
79200;Laerm;68628;48.714;9.472;2023-10-09T09:03:48;50.50;49.81;51.66;;
79200;Laerm;68628;48.714;9.472;2023-10-09T09:06:17;50.99;49.84;54.49;;
79200;Laerm;68628;48.714;9.472;2023-10-09T09:08:49;51.19;50.19;55.09;;
79200;Laerm;68628;48.714;9.472;2023-10-09T09:11:20;51.58;50.06;54.37;;
79200;Laerm;68628;48.714;9.472;2023-10-09T09:14:02;51.12;50.12;53.43;;
79200;Laerm;68628;48.714;9.472;2023-10-09T09:16:40;51.16;50.11;52.28;;
79200;Laerm;68628;48.714;9.472;2023-10-09T09:19:14;51.20;50.32;52.51;;
79200;Laerm;68628;48.714;9.472;2023-10-09T09:21:52;51.49;50.40;53.58;;
79200;Laerm;68628;48.714;9.472;2023-10-09T09:24:24;51.33;50.26;54.11;;
79200;Laerm;68628;48.714;9.472;2023-10-09T09:26:53;51.54;50.47;53.19;;
79200;Laerm;68628;48.714;9.472;2023-10-09T09:29:45;52.51;50.48;55.36;;
79200;Laerm;68628;48.714;9.472;2023-10-09T09:32:12;52.86;50.49;59.34;;
79200;Laerm;68628;48.714;9.472;2023-10-09T09:37:31;52.29;51.16;54.73;;
79200;Laerm;68628;48.714;9.472;2023-10-09T09:40:04;51.55;49.97;53.89;;
79200;Laerm;68628;48.714;9.472;2023-10-09T09:42:39;51.79;50.61;55.37;;
79200;Laerm;68628;48.714;9.472;2023-10-09T09:45:11;51.58;50.50;53.42;;
79200;Laerm;68628;48.714;9.472;2023-10-09T09:47:37;53.06;50.81;56.46;;
79200;Laerm;68628;48.714;9.472;2023-10-09T09:50:05;55.24;51.70;57.93;;
79200;Laerm;68628;48.714;9.472;2023-10-09T09:52:50;55.47;51.52;58.47;;
79200;Laerm;68628;48.714;9.472;2023-10-09T09:55:24;55.45;51.20;65.52;;
79200;Laerm;68628;48.714;9.472;2023-10-09T09:57:57;56.81;52.78;61.66;;
79200;Laerm;68628;48.714;9.472;2023-10-09T10:00:28;54.24;50.43;60.28;;
79200;Laerm;68628;48.714;9.472;2023-10-09T10:03:11;52.72;51.03;59.88;;
79200;Laerm;68628;48.714;9.472;2023-10-09T10:05:42;51.73;50.60;58.77;;
79200;Laerm;68628;48.714;9.472;2023-10-09T10:08:09;52.77;50.67;56.27;;
79200;Laerm;68628;48.714;9.472;2023-10-09T10:10:40;53.07;50.77;58.65;;
79200;Laerm;68628;48.714;9.472;2023-10-09T10:13:15;52.79;50.66;58.01;;
79200;Laerm;68628;48.714;9.472;2023-10-09T10:21:17;54.26;51.21;58.25;;
79200;Laerm;68628;48.714;9.472;2023-10-09T10:23:54;54.73;51.21;61.26;;
79200;Laerm;68628;48.714;9.472;2023-10-09T10:26:32;54.69;51.61;59.50;;
79200;Laerm;68628;48.714;9.472;2023-10-09T10:29:20;54.61;50.63;61.72;;
79200;Laerm;68628;48.714;9.472;2023-10-09T10:31:59;54.86;51.24;59.72;;
79200;Laerm;68628;48.714;9.472;2023-10-09T10:37:34;53.55;50.79;56.10;;
79200;Laerm;68628;48.714;9.472;2023-10-09T10:40:05;53.05;50.75;57.72;;
79200;Laerm;68628;48.714;9.472;2023-10-09T10:42:50;54.08;51.20;60.25;;
79200;Laerm;68628;48.714;9.472;2023-10-09T10:45:37;52.42;50.43;56.78;;
79200;Laerm;68628;48.714;9.472;2023-10-09T10:48:09;53.29;50.65;58.05;;
79200;Laerm;68628;48.714;9.472;2023-10-09T10:50:57;54.26;50.83;59.72;;
79200;Laerm;68628;48.714;9.472;2023-10-09T10:53:24;54.63;51.48;62.07;;
79200;Laerm;68628;48.714;9.472;2023-10-09T10:56:02;55.01;50.85;60.40;;
79200;Laerm;68628;48.714;9.472;2023-10-09T10:58:41;56.13;50.80;60.53;;
79200;Laerm;68628;48.714;9.472;2023-10-09T11:01:19;54.88;50.85;62.80;;
79200;Laerm;68628;48.714;9.472;2023-10-09T11:03:50;56.25;51.78;63.50;;
79200;Laerm;68628;48.714;9.472;2023-10-09T11:06:25;55.87;51.07;61.49;;
79200;Laerm;68628;48.714;9.472;2023-10-09T11:09:01;55.08;51.99;58.18;;
79200;Laerm;68628;48.714;9.472;2023-10-09T11:11:35;55.85;52.02;59.26;;
79200;Laerm;68628;48.714;9.472;2023-10-09T11:14:13;54.74;51.47;58.87;;
79200;Laerm;68628;48.714;9.472;2023-10-09T11:16:51;56.00;52.59;59.44;;
79200;Laerm;68628;48.714;9.472;2023-10-09T11:19:25;56.10;52.28;60.97;;
79200;Laerm;68628;48.714;9.472;2023-10-09T11:21:58;55.80;52.64;59.36;;
79200;Laerm;68628;48.714;9.472;2023-10-09T11:24:28;55.61;51.58;64.51;;
79200;Laerm;68628;48.714;9.472;2023-10-09T11:27:02;54.40;51.04;59.43;;
79200;Laerm;68628;48.714;9.472;2023-10-09T11:29:35;56.98;51.46;63.38;;
79200;Laerm;68628;48.714;9.472;2023-10-09T11:32:20;54.34;51.75;58.13;;
79200;Laerm;68628;48.714;9.472;2023-10-09T11:35:09;55.68;52.55;61.62;;
79200;Laerm;68628;48.714;9.472;2023-10-09T11:37:35;55.72;50.41;61.80;;
79200;Laerm;68628;48.714;9.472;2023-10-09T11:40:27;54.99;50.78;59.88;;
79200;Laerm;68628;48.714;9.472;2023-10-09T11:43:00;54.49;50.24;59.13;;
79200;Laerm;68628;48.714;9.472;2023-10-09T11:45:28;53.59;50.10;58.61;;
79200;Laerm;68628;48.714;9.472;2023-10-09T11:47:56;54.27;50.03;60.24;;
79200;Laerm;68628;48.714;9.472;2023-10-09T11:50:46;55.41;50.59;60.49;;
79200;Laerm;68628;48.714;9.472;2023-10-09T11:53:16;53.29;50.61;57.89;;
79200;Laerm;68628;48.714;9.472;2023-10-09T11:55:49;53.14;50.26;59.15;;
79200;Laerm;68628;48.714;9.472;2023-10-09T11:58:16;52.52;50.48;55.58;;
79200;Laerm;68628;48.714;9.472;2023-10-09T12:00:55;56.06;50.44;63.32;;
79200;Laerm;68628;48.714;9.472;2023-10-09T12:03:32;55.53;51.76;60.59;;
79200;Laerm;68628;48.714;9.472;2023-10-09T12:05:59;55.68;52.35;59.80;;
79200;Laerm;68628;48.714;9.472;2023-10-09T12:08:27;52.77;50.61;56.34;;
79200;Laerm;68628;48.714;9.472;2023-10-09T12:10:54;51.77;50.56;53.98;;
79200;Laerm;68628;48.714;9.472;2023-10-09T12:13:22;51.69;50.49;54.50;;
79200;Laerm;68628;48.714;9.472;2023-10-09T12:15:49;51.64;50.40;55.25;;
79200;Laerm;68628;48.714;9.472;2023-10-09T12:18:21;51.80;50.56;53.26;;
79200;Laerm;68628;48.714;9.472;2023-10-09T12:20:50;51.74;50.58;54.76;;
79200;Laerm;68628;48.714;9.472;2023-10-09T12:23:18;51.53;50.47;53.56;;
79200;Laerm;68628;48.714;9.472;2023-10-09T12:25:45;51.43;50.27;52.99;;
79200;Laerm;68628;48.714;9.472;2023-10-09T12:28:13;51.82;50.53;56.26;;
79200;Laerm;68628;48.714;9.472;2023-10-09T12:30:42;51.89;50.76;53.76;;
79200;Laerm;68628;48.714;9.472;2023-10-09T12:33:20;51.59;50.14;53.83;;
79200;Laerm;68628;48.714;9.472;2023-10-09T12:35:57;52.36;50.73;54.79;;
79200;Laerm;68628;48.714;9.472;2023-10-09T12:38:39;53.13;50.47;59.81;;
79200;Laerm;68628;48.714;9.472;2023-10-09T12:41:07;51.99;50.27;55.43;;
79200;Laerm;68628;48.714;9.472;2023-10-09T12:43:42;51.57;50.35;53.56;;
79200;Laerm;68628;48.714;9.472;2023-10-09T12:46:33;51.66;50.44;53.49;;
79200;Laerm;68628;48.714;9.472;2023-10-09T12:49:02;51.83;50.09;53.40;;
79200;Laerm;68628;48.714;9.472;2023-10-09T12:51:29;51.82;50.18;54.62;;
79200;Laerm;68628;48.714;9.472;2023-10-09T12:53:58;51.79;50.39;54.02;;
79200;Laerm;68628;48.714;9.472;2023-10-09T12:56:28;53.81;50.74;59.21;;
79200;Laerm;68628;48.714;9.472;2023-10-09T12:59:02;58.18;54.57;61.10;;
79200;Laerm;68628;48.714;9.472;2023-10-09T13:01:31;56.41;51.89;59.67;;
79200;Laerm;68628;48.714;9.472;2023-10-09T13:04:05;54.44;51.49;56.77;;
79200;Laerm;68628;48.714;9.472;2023-10-09T13:06:39;53.46;51.45;58.33;;
79200;Laerm;68628;48.714;9.472;2023-10-09T13:09:13;51.86;50.03;55.35;;
79200;Laerm;68628;48.714;9.472;2023-10-09T13:11:41;51.66;50.13;57.38;;
79200;Laerm;68628;48.714;9.472;2023-10-09T13:14:08;51.85;50.59;54.80;;
79200;Laerm;68628;48.714;9.472;2023-10-09T13:16:45;51.45;50.15;53.42;;
79200;Laerm;68628;48.714;9.472;2023-10-09T13:19:12;51.28;50.21;54.42;;
79200;Laerm;68628;48.714;9.472;2023-10-09T13:21:38;51.44;50.18;52.81;;
79200;Laerm;68628;48.714;9.472;2023-10-09T13:24:06;52.11;50.45;53.87;;
79200;Laerm;68628;48.714;9.472;2023-10-09T13:26:39;52.55;50.78;54.06;;
79200;Laerm;68628;48.714;9.472;2023-10-09T13:29:06;52.32;50.49;57.79;;
79200;Laerm;68628;48.714;9.472;2023-10-09T13:31:40;52.68;50.78;63.56;;
79200;Laerm;68628;48.714;9.472;2023-10-09T13:34:12;52.44;50.55;55.99;;
79200;Laerm;68628;48.714;9.472;2023-10-09T13:36:44;53.44;50.96;57.88;;
79200;Laerm;68628;48.714;9.472;2023-10-09T13:39:27;52.87;50.52;55.63;;
79200;Laerm;68628;48.714;9.472;2023-10-09T13:41:59;53.06;50.53;57.87;;
79200;Laerm;68628;48.714;9.472;2023-10-09T13:44:27;56.18;50.16;61.77;;
79200;Laerm;68628;48.714;9.472;2023-10-09T13:46:55;56.84;50.21;61.36;;
79200;Laerm;68628;48.714;9.472;2023-10-09T13:49:22;56.62;51.11;64.24;;
79200;Laerm;68628;48.714;9.472;2023-10-09T13:51:49;53.31;51.37;56.44;;
79200;Laerm;68628;48.714;9.472;2023-10-09T13:54:18;53.50;51.56;58.51;;
79200;Laerm;68628;48.714;9.472;2023-10-09T13:56:51;55.13;51.89;59.19;;
79200;Laerm;68628;48.714;9.472;2023-10-09T13:59:19;55.39;51.90;58.81;;
79200;Laerm;68628;48.714;9.472;2023-10-09T14:01:48;53.99;51.70;56.08;;
79200;Laerm;68628;48.714;9.472;2023-10-09T14:04:14;54.34;52.09;56.76;;
79200;Laerm;68628;48.714;9.472;2023-10-09T14:06:50;57.70;52.71;61.41;;
79200;Laerm;68628;48.714;9.472;2023-10-09T14:09:27;57.52;53.95;62.22;;
79200;Laerm;68628;48.714;9.472;2023-10-09T14:12:03;58.36;54.43;63.49;;
79200;Laerm;68628;48.714;9.472;2023-10-09T14:14:43;56.28;52.24;59.12;;
79200;Laerm;68628;48.714;9.472;2023-10-09T14:17:18;54.67;51.94;58.60;;
79200;Laerm;68628;48.714;9.472;2023-10-09T14:19:53;55.44;52.47;58.96;;
79200;Laerm;68628;48.714;9.472;2023-10-09T14:22:30;57.54;52.59;61.86;;
79200;Laerm;68628;48.714;9.472;2023-10-09T14:24:56;54.87;51.88;57.24;;
79200;Laerm;68628;48.714;9.472;2023-10-09T14:27:26;54.87;52.52;59.31;;
79200;Laerm;68628;48.714;9.472;2023-10-09T14:29:57;54.77;51.91;60.36;;
79200;Laerm;68628;48.714;9.472;2023-10-09T14:32:35;54.47;52.12;58.39;;
79200;Laerm;68628;48.714;9.472;2023-10-09T14:35:08;56.02;53.47;59.51;;
79200;Laerm;68628;48.714;9.472;2023-10-09T14:37:44;56.46;53.25;60.35;;
79200;Laerm;68628;48.714;9.472;2023-10-09T14:40:16;54.86;52.73;58.41;;